Time;durP1;ratioP1;P1;durP2;ratioP2;P2;SDS_P1;SDS_P2;PMS_P1;PMS_P2;Temp;Humidity;BMP_temperature;BMP_pressure;BME280_temperature;BME280_humidity;BME280_pressure;Samples;Min_cycle;Max_cycle;Signal;HPM_P1;HPM_P2
2023/02/06 00:01:29;;;;;;;16.93;7.55;;;;;;;-4.71;71.12;102313.42;1473146;88;21419;-84
2023/02/06 00:03:55;;;;;;;19.05;8.00;;;;;;;-4.67;71.23;102315.11;1469519;88;21464;-84
2023/02/06 00:06:22;;;;;;;13.03;7.10;;;;;;;-4.69;71.23;102320.74;1475893;88;22299;-84
2023/02/06 00:08:48;;;;;;;16.77;7.97;;;;;;;-4.71;71.42;102320.31;1479671;88;21625;-85
2023/02/06 00:11:15;;;;;;;15.65;6.70;;;;;;;-4.68;71.62;102317.28;1471757;88;21352;-85
2023/02/06 00:13:43;;;;;;;17.15;7.85;;;;;;;-4.71;71.63;102322.46;1473372;88;21508;-85
2023/02/06 00:16:26;;;;;;;16.77;7.47;;;;;;;-4.74;71.78;102314.72;1465173;88;21413;-86
2023/02/06 00:18:55;;;;;;;18.10;8.18;;;;;;;-4.73;71.67;102317.72;1458283;88;21427;-86
2023/02/06 00:21:24;;;;;;;16.00;8.25;;;;;;;-4.77;72.11;102321.19;1466586;89;21562;-83
2023/02/06 00:23:53;;;;;;;13.85;7.78;;;;;;;-4.75;72.08;102320.73;1463354;89;21390;-84
2023/02/06 00:26:21;;;;;;;18.00;8.85;;;;;;;-4.71;72.12;102327.63;1460676;89;22478;-88
2023/02/06 00:28:47;;;;;;;17.55;8.48;;;;;;;-4.77;72.21;102325.06;1461780;89;21457;-86
2023/02/06 00:31:14;;;;;;;14.68;8.30;;;;;;;-4.76;72.32;102321.17;1466311;89;21612;-86
2023/02/06 00:33:40;;;;;;;20.80;8.73;;;;;;;-4.74;72.16;102318.59;1462473;89;21957;-87
2023/02/06 00:36:08;;;;;;;18.35;7.92;;;;;;;-4.75;72.37;102322.02;1466353;89;22915;-87
2023/02/06 00:38:36;;;;;;;17.65;8.53;;;;;;;-4.79;72.38;102313.86;1459042;89;21346;-86
2023/02/06 00:41:03;;;;;;;16.90;8.43;;;;;;;-4.79;72.27;102316.01;1470350;89;22141;-86
2023/02/06 00:43:29;;;;;;;14.90;8.28;;;;;;;-4.78;72.23;102322.03;1465768;89;21412;-85
2023/02/06 00:45:57;;;;;;;15.60;8.30;;;;;;;-4.80;72.23;102312.16;1454720;88;21324;-85
2023/02/06 00:48:25;;;;;;;15.93;8.43;;;;;;;-4.80;72.23;102317.33;1465166;89;21880;-87
2023/02/06 00:50:52;;;;;;;20.00;8.48;;;;;;;-4.77;71.89;102320.75;1467216;89;21347;-87
2023/02/06 00:53:20;;;;;;;11.97;6.08;;;;;;;-4.78;71.60;102320.73;1458797;89;21769;-87
2023/02/06 00:55:46;;;;;;;12.10;6.65;;;;;;;-4.77;71.38;102318.61;1462014;88;21399;-86
2023/02/06 00:58:12;;;;;;;15.90;8.88;;;;;;;-4.75;71.14;102314.27;1456017;89;21360;-83
2023/02/06 01:00:38;;;;;;;12.23;5.65;;;;;;;-4.71;71.22;102321.61;1461904;89;22396;-86
2023/02/06 01:03:05;;;;;;;15.75;7.92;;;;;;;-4.72;70.99;102328.47;1444818;89;21376;-86
2023/02/06 01:05:31;;;;;;;17.82;8.40;;;;;;;-4.71;71.27;102320.31;1464942;89;21583;-85
2023/02/06 01:07:57;;;;;;;13.80;8.38;;;;;;;-4.72;70.59;102323.30;1460768;89;22358;-86
2023/02/06 01:10:23;;;;;;;15.63;7.92;;;;;;;-4.69;71.02;102329.78;1465479;89;21413;-85
2023/02/06 01:12:49;;;;;;;12.88;7.20;;;;;;;-4.69;70.36;102325.91;1465000;89;21512;-86
2023/02/06 01:15:16;;;;;;;11.08;6.83;;;;;;;-4.65;70.06;102325.02;1449932;88;22381;-83
2023/02/06 01:17:42;;;;;;;17.35;8.98;;;;;;;-4.66;69.61;102320.73;1474064;88;21338;-87
2023/02/06 01:20:12;;;;;;;16.50;8.78;;;;;;;-4.63;69.91;102318.14;1475722;88;21389;-85
2023/02/06 01:22:39;;;;;;;12.73;6.67;;;;;;;-4.65;69.70;102325.02;1476277;88;21390;-86
2023/02/06 01:25:06;;;;;;;15.03;7.35;;;;;;;-4.67;69.83;102315.55;1469326;88;21509;-86
2023/02/06 01:27:36;;;;;;;14.23;7.40;;;;;;;-4.69;69.65;102318.56;1477005;88;21418;-86
2023/02/06 01:30:05;;;;;;;10.93;5.58;;;;;;;-4.64;69.47;102318.98;1486588;88;21309;-87
2023/02/06 01:32:31;;;;;;;14.25;8.08;;;;;;;-4.67;69.29;102309.95;1476846;88;21497;-86
2023/02/06 01:34:58;;;;;;;15.13;6.42;;;;;;;-4.68;69.42;102315.99;1475326;88;21398;-84
2023/02/06 01:37:24;;;;;;;13.62;7.08;;;;;;;-4.71;69.54;102319.02;1472787;88;21382;-85
2023/02/06 01:39:50;;;;;;;13.55;6.03;;;;;;;-4.72;69.46;102305.66;1472069;88;21391;-85
2023/02/06 01:42:16;;;;;;;18.37;8.10;;;;;;;-4.74;69.55;102312.14;1472442;88;21665;-86
2023/02/06 01:44:42;;;;;;;13.40;6.92;;;;;;;-4.69;69.92;102318.16;1475125;88;22189;-86
2023/02/06 01:47:09;;;;;;;13.70;6.92;;;;;;;-4.73;70.05;102312.55;1478222;88;21353;-84
2023/02/06 01:49:45;;;;;;;12.25;5.70;;;;;;;-4.73;69.94;102316.42;1470163;88;22440;-85
2023/02/06 01:52:22;;;;;;;13.88;7.70;;;;;;;-4.74;70.05;102312.14;1470485;88;21368;-84
2023/02/06 01:54:54;;;;;;;19.37;6.83;;;;;;;-4.75;70.31;102315.56;1479976;88;21338;-85
2023/02/06 01:57:21;;;;;;;14.95;7.20;;;;;;;-4.74;70.37;102316.45;1474960;88;21448;-86
2023/02/06 01:59:53;;;;;;;12.70;6.67;;;;;;;-4.76;70.42;102313.86;1476079;88;21538;-86
2023/02/06 02:02:20;;;;;;;15.23;7.05;;;;;;;-4.76;70.45;102317.73;1475938;88;21361;-86
2023/02/06 02:04:46;;;;;;;10.95;6.85;;;;;;;-4.73;70.55;102306.09;1472233;88;21460;-83
2023/02/06 02:07:24;;;;;;;13.58;7.42;;;;;;;-4.75;70.67;102307.81;1477115;88;21397;-81
2023/02/06 02:09:50;;;;;;;21.45;8.08;;;;;;;-4.75;70.63;102302.64;1460194;88;21361;-82
2023/02/06 02:12:19;;;;;;;12.80;7.83;;;;;;;-4.77;70.70;102310.86;1456312;88;21309;-83
2023/02/06 02:14:48;;;;;;;10.95;5.67;;;;;;;-4.80;70.88;102309.58;1485682;88;21449;-83
2023/02/06 02:17:41;;;;;;;17.23;7.30;;;;;;;-4.82;71.13;102304.39;1471687;88;21390;-88
2023/02/06 02:20:28;;;;;;;14.38;8.15;;;;;;;-4.82;71.07;102310.85;1463628;89;21368;-86
2023/02/06 02:23:42;;;;;;;16.65;8.68;;;;;;;-4.79;71.29;102306.97;1449302;89;21985;-86
2023/02/06 02:26:47;;;;;;;16.55;6.78;;;;;;;-4.84;71.53;102302.67;1431109;91;21458;-87
2023/02/06 02:29:45;;;;;;;21.15;9.00;;;;;;;-4.89;71.38;102310.86;1439114;91;21517;-87
2023/02/06 02:33:09;;;;;;;14.47;6.58;;;;;;;-4.82;71.54;102307.42;1424173;91;22294;-88
2023/02/06 02:35:46;;;;;;;16.67;8.05;;;;;;;-4.92;71.81;102314.74;1422264;91;21436;-88
2023/02/06 02:38:24;;;;;;;14.55;7.83;;;;;;;-4.89;71.46;102306.98;1426995;91;21488;-86
2023/02/06 02:40:55;;;;;;;16.90;7.72;;;;;;;-4.90;71.92;102309.16;1430305;91;22494;-86
2023/02/06 02:43:36;;;;;;;16.05;8.75;;;;;;;-4.94;71.63;102313.47;1423156;91;22379;-85
2023/02/06 02:46:14;;;;;;;18.42;10.15;;;;;;;-4.91;71.75;102310.03;1429267;91;21407;-85
2023/02/06 02:48:43;;;;;;;12.23;4.97;;;;;;;-4.96;71.74;102318.20;1425372;91;21437;-85
2023/02/06 02:51:10;;;;;;;15.40;7.80;;;;;;;-5.01;71.54;102311.31;1427968;91;21502;-84
2023/02/06 02:53:36;;;;;;;15.63;7.83;;;;;;;-4.97;71.29;102317.79;1433631;91;21695;-83
2023/02/06 02:56:16;;;;;;;13.58;7.87;;;;;;;-4.95;71.28;102310.88;1432992;89;22309;-84
2023/02/06 02:58:45;;;;;;;10.90;5.92;;;;;;;-4.96;71.22;102315.63;1461428;89;21487;-83
2023/02/06 03:01:16;;;;;;;17.60;7.97;;;;;;;-4.98;70.85;102315.61;1471965;89;22293;-85
2023/02/06 03:03:44;;;;;;;;;;;;;;;-5.00;70.87;102311.75;1477977;89;21368;-84
2023/02/06 03:06:36;;;;;;;14.90;8.25;;;;;;;-4.98;71.10;102310.45;1456951;89;20299;-84
2023/02/06 03:09:19;;;;;;;14.73;7.40;;;;;;;-4.96;70.85;102309.17;1459590;89;21456;-83
2023/02/06 03:11:57;;;;;;;13.03;7.60;;;;;;;-4.94;71.21;102313.91;1456112;88;21360;-86
2023/02/06 03:14:34;;;;;;;15.28;8.10;;;;;;;-5.00;71.39;102314.34;1418135;89;22313;-85
2023/02/06 03:17:08;;;;;;;15.20;7.40;;;;;;;-5.07;71.00;102306.16;1459597;88;21462;-83
2023/02/06 03:19:43;;;;;;;10.98;6.10;;;;;;;-5.03;71.32;102313.05;1477471;88;21760;-86
2023/02/06 03:22:10;;;;;;;17.42;8.00;;;;;;;-5.09;71.07;102304.03;1475049;88;21456;-86
2023/02/06 03:24:38;;;;;;;15.03;7.42;;;;;;;-5.06;70.89;102310.48;1476116;88;21450;-87
2023/02/06 03:27:12;;;;;;;15.98;8.23;;;;;;;-5.09;71.15;102308.31;1465952;88;21368;-86
2023/02/06 03:29:41;;;;;;;9.85;5.47;;;;;;;-5.11;71.09;102308.77;1471385;88;21397;-88
2023/02/06 03:32:22;;;;;;;14.83;7.67;;;;;;;-5.09;71.15;102299.27;1480338;88;21538;-89
2023/02/06 03:35:00;;;;;;;17.25;7.90;;;;;;;-5.10;71.19;102298.41;1472219;88;21449;-87
2023/02/06 03:37:28;;;;;;;16.52;8.93;;;;;;;-5.14;71.29;102301.88;1474381;88;21544;-86
2023/02/06 03:39:57;;;;;;;20.45;7.80;;;;;;;-5.13;71.08;102306.17;1474363;88;21384;-87
2023/02/06 03:42:27;;;;;;;16.23;8.58;;;;;;;-5.14;70.91;102307.05;1468962;88;21383;-86
2023/02/06 03:45:05;;;;;;;14.10;6.83;;;;;;;-5.14;71.09;102307.05;1470714;88;21367;-86
2023/02/06 03:47:35;;;;;;;14.15;7.03;;;;;;;-5.23;70.98;102312.22;1468462;88;21412;-86
2023/02/06 03:50:02;;;;;;;20.52;7.90;;;;;;;-5.18;71.00;102308.33;1457494;88;21315;-85
2023/02/06 03:52:33;;;;;;;15.00;7.15;;;;;;;-5.17;71.07;102310.06;1465416;88;22383;-88
2023/02/06 03:55:05;;;;;;;13.80;7.15;;;;;;;-5.22;71.33;102317.80;1485975;88;21449;-87
2023/02/06 03:57:34;;;;;;;12.58;6.67;;;;;;;-5.25;70.96;102320.39;1478066;88;21420;-87
2023/02/06 04:00:02;;;;;;;15.60;7.25;;;;;;;-5.21;71.02;102306.59;1473602;88;21287;-87
2023/02/06 04:02:30;;;;;;;13.48;7.40;;;;;;;-5.26;71.15;102307.06;1484171;88;22316;-86
2023/02/06 04:04:56;;;;;;;15.48;8.68;;;;;;;-5.23;71.10;102302.75;1465390;88;21538;-86
2023/02/06 04:07:27;;;;;;;13.43;7.28;;;;;;;-5.27;71.08;102313.06;1474262;88;21486;-84
2023/02/06 04:09:53;;;;;;;17.42;8.55;;;;;;;-5.26;71.04;102310.94;1477081;88;22264;-83
2023/02/06 04:12:20;;;;;;;14.80;7.90;;;;;;;-5.24;70.96;102317.82;1480626;88;22447;-81
2023/02/06 04:14:47;;;;;;;13.03;6.72;;;;;;;-5.35;71.24;102316.07;1478906;88;21316;-83
2023/02/06 04:17:13;;;;;;;11.48;6.65;;;;;;;-5.35;71.39;102312.20;1477961;88;21651;-84
2023/02/06 04:19:40;;;;;;;14.63;6.65;;;;;;;-5.36;71.62;102319.09;1479635;88;21537;-83
2023/02/06 04:22:10;;;;;;;16.12;7.50;;;;;;;-5.36;71.58;102320.81;1474519;88;21382;-83
2023/02/06 04:24:39;;;;;;;12.55;6.75;;;;;;;-5.39;71.60;102316.95;1469439;88;21471;-86
2023/02/06 04:27:06;;;;;;;13.88;6.28;;;;;;;-5.47;71.75;102317.82;1475709;88;22418;-87
2023/02/06 04:29:32;;;;;;;9.93;5.72;;;;;;;-5.49;71.81;102314.80;1471301;88;21420;-87
2023/02/06 04:32:01;;;;;;;14.75;7.22;;;;;;;-5.52;71.94;102319.53;1473038;88;22395;-86
2023/02/06 04:34:28;;;;;;;12.35;6.42;;;;;;;-5.47;71.84;102315.64;1476270;88;21420;-85
2023/02/06 04:36:55;;;;;;;15.05;7.37;;;;;;;-5.53;71.84;102317.78;1466666;88;21505;-86
2023/02/06 04:39:22;;;;;;;12.45;6.70;;;;;;;-5.53;71.95;102324.23;1474808;88;21458;-85
2023/02/06 04:41:48;;;;;;;14.75;7.25;;;;;;;-5.54;72.04;102321.23;1474279;88;21552;-87
2023/02/06 04:44:14;;;;;;;14.20;7.25;;;;;;;-5.56;72.13;102320.37;1475701;88;21382;-87
2023/02/06 04:46:43;;;;;;;22.10;8.98;;;;;;;-5.56;72.34;102321.66;1477156;88;21934;-88
2023/02/06 04:49:11;;;;;;;16.30;8.43;;;;;;;-5.58;72.37;102318.23;1465634;88;21338;-88
2023/02/06 04:51:37;;;;;;;13.18;6.87;;;;;;;-5.57;72.38;102317.37;1473994;88;21494;-89
2023/02/06 04:54:05;;;;;;;12.55;5.83;;;;;;;-5.58;72.43;102324.69;1482274;88;22380;-87
2023/02/06 04:56:32;;;;;;;13.35;6.67;;;;;;;-5.61;72.54;102327.27;1463552;88;21346;-87
2023/02/06 04:58:58;;;;;;;13.38;7.55;;;;;;;-5.61;72.68;102325.98;1478652;88;21479;-88
2023/02/06 05:01:25;;;;;;;9.90;5.80;;;;;;;-5.59;72.70;102329.40;1465259;88;21390;-87
2023/02/06 05:03:51;;;;;;;17.92;8.35;;;;;;;-5.60;72.63;102331.99;1475577;88;21412;-87
2023/02/06 05:06:17;;;;;;;18.10;9.53;;;;;;;-5.61;72.68;102337.59;1475612;88;21420;-90
2023/02/06 05:08:44;;;;;;;12.70;7.10;;;;;;;-5.60;72.59;102332.84;1455156;88;22587;-90
2023/02/06 05:11:10;;;;;;;16.40;7.30;;;;;;;-5.60;72.68;102337.16;1479071;88;21463;-89
2023/02/06 05:13:36;;;;;;;17.20;8.93;;;;;;;-5.55;72.62;102343.16;1486078;88;22235;-89
2023/02/06 05:16:12;;;;;;;13.93;6.62;;;;;;;-5.52;72.47;102341.90;1469246;88;22374;-90
2023/02/06 05:18:39;;;;;;;17.52;8.40;;;;;;;-5.56;72.65;102342.30;1471148;88;22477;-89
2023/02/06 05:21:06;;;;;;;16.97;7.67;;;;;;;-5.56;72.67;102342.73;1470720;89;21441;-89
2023/02/06 05:23:33;;;;;;;17.30;6.47;;;;;;;-5.55;72.67;102347.91;1444582;89;21258;-89
2023/02/06 05:26:00;;;;;;;15.90;8.35;;;;;;;-5.54;72.66;102352.20;1468022;88;21449;-88
2023/02/06 05:28:28;;;;;;;8.40;4.97;;;;;;;-5.53;72.57;102351.33;1475075;89;22359;-89
2023/02/06 05:30:56;;;;;;;13.03;6.92;;;;;;;-5.55;72.59;102351.78;1467034;89;21391;-90
2023/02/06 05:33:23;;;;;;;14.83;7.08;;;;;;;-5.49;72.76;102362.54;1467500;89;21494;-89
2023/02/06 05:35:49;;;;;;;13.40;7.05;;;;;;;-5.47;72.69;102362.98;1470772;89;22285;-90
2023/02/06 05:38:15;;;;;;;14.00;6.90;;;;;;;-5.52;72.81;102369.84;1461895;89;21510;-89
2023/02/06 05:40:42;;;;;;;12.82;7.90;;;;;;;-5.51;72.80;102370.27;1468066;89;21354;-88
2023/02/06 05:43:08;;;;;;;17.42;8.15;;;;;;;-5.51;72.88;102370.27;1451495;89;22383;-88
2023/02/06 05:45:35;;;;;;;17.30;7.90;;;;;;;-5.47;72.81;102378.46;1467179;89;21971;-88
2023/02/06 05:48:01;;;;;;;12.07;6.37;;;;;;;-5.45;72.72;102371.99;1470429;89;21390;-89
2023/02/06 05:50:27;;;;;;;12.75;7.40;;;;;;;-5.50;72.87;102375.84;1467660;89;21391;-89
2023/02/06 05:52:53;;;;;;;15.58;7.70;;;;;;;-5.49;72.91;102371.14;1451424;89;21505;-89
2023/02/06 05:55:20;;;;;;;12.73;6.65;;;;;;;-5.50;73.08;102381.01;1469519;88;21534;-88
2023/02/06 05:57:46;;;;;;;14.03;6.95;;;;;;;-5.50;73.06;102375.84;1468542;89;21376;-88
2023/02/06 06:00:13;;;;;;;11.85;6.12;;;;;;;-5.48;72.70;102372.84;1469891;89;22241;-85
2023/02/06 06:02:40;;;;;;;21.65;7.28;;;;;;;-5.48;72.81;102366.40;1476964;89;21516;-87
2023/02/06 06:05:07;;;;;;;12.68;5.85;;;;;;;-5.49;72.79;102365.98;1474375;89;21317;-85
2023/02/06 06:07:33;;;;;;;13.88;6.60;;;;;;;-5.48;72.61;102365.55;1472188;89;22455;-84
2023/02/06 06:10:00;;;;;;;12.88;7.33;;;;;;;-5.40;72.64;102378.03;1465329;89;21463;-87
2023/02/06 06:12:26;;;;;;;12.68;7.60;;;;;;;-5.39;72.73;102375.87;1467828;89;21354;-88
2023/02/06 06:14:52;;;;;;;12.45;6.75;;;;;;;-5.35;72.64;102379.30;1473526;89;21580;-86
2023/02/06 06:17:19;;;;;;;12.88;7.53;;;;;;;-5.31;72.63;102383.63;1468783;89;21412;-89
2023/02/06 06:19:45;;;;;;;16.25;8.40;;;;;;;-5.29;72.37;102379.34;1475227;88;21411;-89
2023/02/06 06:22:13;;;;;;;14.60;8.58;;;;;;;-5.22;72.33;102382.34;1486029;88;21596;-83
2023/02/06 06:24:40;;;;;;;18.30;8.83;;;;;;;-5.22;72.29;102377.17;1476563;87;21441;-85
2023/02/06 06:27:09;;;;;;;14.05;7.72;;;;;;;-5.18;72.28;102376.73;1481808;88;21530;-87
2023/02/06 06:29:34;;;;;;;12.58;7.28;;;;;;;-5.14;72.29;102385.79;1473718;88;21501;-87
2023/02/06 06:32:00;;;;;;;17.07;7.65;;;;;;;-5.08;72.12;102388.80;1477362;88;21589;-87
2023/02/06 06:34:26;;;;;;;17.20;8.38;;;;;;;-5.03;72.24;102386.66;1468556;88;22784;-85
2023/02/06 06:36:52;;;;;;;14.73;7.42;;;;;;;-4.93;72.05;102390.52;1473289;88;21508;-88
2023/02/06 06:39:19;;;;;;;15.35;8.05;;;;;;;-4.89;71.96;102387.05;1476433;88;21427;-89
2023/02/06 06:41:45;;;;;;;13.75;6.40;;;;;;;-4.86;71.71;102390.52;1473688;88;21470;-87
2023/02/06 06:44:11;;;;;;;16.50;8.73;;;;;;;-4.82;71.31;102392.22;1477968;88;21325;-88
2023/02/06 06:46:37;;;;;;;17.45;7.60;;;;;;;-4.75;71.42;102387.91;1446119;88;22312;-88
2023/02/06 06:49:04;;;;;;;14.13;6.97;;;;;;;-4.74;71.08;102383.63;1463865;88;22028;-89
2023/02/06 06:51:30;;;;;;;11.38;7.15;;;;;;;-4.68;71.14;102381.88;1476808;88;21827;-89
2023/02/06 06:53:56;;;;;;;12.20;7.53;;;;;;;-4.65;71.04;102377.99;1468084;88;22377;-88
2023/02/06 06:56:23;;;;;;;16.67;8.20;;;;;;;-4.63;70.87;102373.69;1464639;88;21331;-88
2023/02/06 06:58:49;;;;;;;14.75;6.45;;;;;;;-4.55;71.28;102375.80;1472775;88;21325;-88
2023/02/06 07:01:17;;;;;;;16.00;8.30;;;;;;;-4.56;70.90;102366.78;1470011;88;21615;-90
2023/02/06 07:03:45;;;;;;;16.93;8.15;;;;;;;-4.47;71.43;102369.33;1466223;88;21419;-91
2023/02/06 07:06:12;;;;;;;17.98;8.65;;;;;;;-4.43;70.97;102371.47;1472327;88;21331;-86
2023/02/06 07:15:42;;;;;;;16.20;8.40;;;;;;;-4.32;70.43;102381.34;1478502;88;21427;-90
2023/02/06 07:18:09;;;;;;;18.23;8.85;;;;;;;-4.20;70.72;102389.08;1480308;88;22433;-90
2023/02/06 07:20:36;;;;;;;14.13;7.53;;;;;;;-4.13;70.61;102379.56;1478114;88;21530;-93
2023/02/06 07:23:05;;;;;;;16.25;8.45;;;;;;;-4.15;70.59;102383.44;1478501;88;21501;-91
2023/02/06 07:25:31;;;;;;;12.63;7.75;;;;;;;-4.10;69.99;102384.28;1485033;88;22417;-92
2023/02/06 07:27:58;;;;;;;13.98;7.35;;;;;;;-3.98;70.19;102377.34;1478165;88;21390;-91
2023/02/06 07:30:24;;;;;;;12.70;7.72;;;;;;;-3.87;70.34;102370.39;1477150;88;21516;-90
2023/02/06 07:32:50;;;;;;;14.58;7.37;;;;;;;-3.87;69.76;102372.54;1470653;88;21301;-87
2023/02/06 07:35:17;;;;;;;13.95;6.53;;;;;;;-3.78;69.79;102378.09;1455083;88;21840;-88
2023/02/06 07:37:43;;;;;;;14.58;6.62;;;;;;;-3.75;70.00;102372.91;1470148;88;21464;-88
2023/02/06 07:40:11;;;;;;;20.97;9.33;;;;;;;-3.74;69.20;102374.64;1477347;88;22241;-89
2023/02/06 07:42:48;;;;;;;12.63;6.50;;;;;;;-3.64;68.72;102368.53;1471242;88;21472;-88
2023/02/06 07:45:15;;;;;;;10.15;5.72;;;;;;;-3.55;69.09;102373.22;1472105;88;21412;-89
2023/02/06 07:47:42;;;;;;;18.50;9.03;;;;;;;-3.56;68.61;102375.40;1473680;88;21583;-88
2023/02/06 07:50:09;;;;;;;13.85;8.65;;;;;;;-3.42;68.96;102370.55;1474817;88;21427;-88
2023/02/06 07:52:36;;;;;;;13.62;7.17;;;;;;;-3.40;68.69;102374.41;1467009;88;22433;-88
2023/02/06 07:55:05;;;;;;;12.40;7.78;;;;;;;-3.25;69.02;102367.84;1472887;88;21338;-86
2023/02/06 07:57:31;;;;;;;13.83;7.47;;;;;;;-3.28;68.21;102369.16;1476038;88;21493;-86
2023/02/06 07:59:57;;;;;;;15.65;7.87;;;;;;;-3.14;68.37;102365.14;1474205;88;21787;-87
2023/02/06 08:02:23;;;;;;;12.85;7.67;;;;;;;-3.11;67.99;102377.21;1474023;88;22285;-86
2023/02/06 08:04:49;;;;;;;13.20;7.58;;;;;;;-2.98;67.51;102370.62;1473881;88;21424;-85
2023/02/06 08:07:17;;;;;;;15.63;7.95;;;;;;;-2.89;67.88;102372.27;1473248;88;21434;-85
2023/02/06 08:09:43;;;;;;;12.07;6.40;;;;;;;-2.83;66.86;102370.06;1476460;88;22338;-88
2023/02/06 08:12:09;;;;;;;13.18;6.62;;;;;;;-2.92;66.51;102369.70;1479923;88;21412;-88
2023/02/06 08:14:35;;;;;;;10.70;6.25;;;;;;;-2.78;67.44;102371.73;1472310;88;21338;-88
2023/02/06 08:17:02;;;;;;;11.93;7.12;;;;;;;-2.64;66.89;102365.56;1476081;88;22314;-89
2023/02/06 08:19:28;;;;;;;14.98;7.90;;;;;;;-2.53;66.63;102365.02;1476623;88;21367;-89
2023/02/06 08:21:54;;;;;;;13.68;7.20;;;;;;;-2.50;66.29;102370.17;1476249;88;21412;-91
2023/02/06 08:24:20;;;;;;;10.85;5.03;;;;;;;-2.52;66.40;102375.80;1476368;88;21635;-82
2023/02/06 08:26:47;;;;;;;11.90;6.37;;;;;;;-2.57;65.38;102372.39;1471715;88;21315;-84
2023/02/06 08:29:13;;;;;;;9.90;5.50;;;;;;;-2.44;65.87;102377.88;1472966;88;22402;-86
2023/02/06 08:31:41;;;;;;;11.10;6.05;;;;;;;-2.44;65.98;102380.47;1474593;88;21361;-83
2023/02/06 08:34:11;;;;;;;11.90;7.05;;;;;;;-2.38;65.10;102377.81;1476792;88;21411;-91
2023/02/06 08:36:38;;;;;;;12.00;5.78;;;;;;;-2.38;64.85;102375.21;1473753;88;21508;-88
2023/02/06 08:39:04;;;;;;;10.68;5.85;;;;;;;-2.36;64.62;102377.36;1472895;88;21989;-91
2023/02/06 08:41:37;;;;;;;12.03;5.67;;;;;;;-2.18;65.07;102372.83;1472914;88;22471;-91
2023/02/06 08:44:10;;;;;;;13.03;7.60;;;;;;;-2.15;63.91;102370.20;1467073;88;21604;-94
2023/02/06 08:46:38;;;;;;;17.42;7.85;;;;;;;-2.00;64.47;102384.27;1468200;88;22078;-92
2023/02/06 08:49:14;;;;;;;18.75;8.45;;;;;;;-2.05;63.17;102379.13;1479622;88;21375;-92
2023/02/06 08:51:41;;;;;;;15.58;7.22;;;;;;;-2.06;63.60;102388.24;1478125;88;21353;-91
2023/02/06 08:54:12;;;;;;;20.52;7.42;;;;;;;-2.00;63.66;102388.61;1471336;88;21545;-91
2023/02/06 08:56:39;;;;;;;11.93;6.25;;;;;;;-1.87;66.02;102384.55;1474902;88;22256;-87
2023/02/06 08:59:06;;;;;;;13.08;7.50;;;;;;;-1.57;67.15;102386.29;1474829;88;21367;-90
2023/02/06 09:01:35;;;;;;;13.50;8.25;;;;;;;-1.46;64.79;102394.78;1474990;88;21449;-92
2023/02/06 09:04:06;;;;;;;10.38;6.05;;;;;;;-1.51;63.48;102393.13;1470562;88;21418;-92
2023/02/06 09:06:35;;;;;;;10.55;6.40;;;;;;;-1.55;62.88;102399.23;1473100;88;21452;-91
2023/02/06 09:09:03;;;;;;;12.82;6.25;;;;;;;-1.53;62.55;102394.88;1475497;88;21522;-89
2023/02/06 09:11:30;;;;;;;15.60;8.25;;;;;;;-1.52;62.67;102400.08;1478662;88;21405;-88
2023/02/06 09:14:00;;;;;;;11.08;6.80;;;;;;;-1.48;61.85;102400.43;1478671;88;21545;-92
2023/02/06 09:16:28;;;;;;;11.22;6.03;;;;;;;-1.36;63.88;102400.24;1477055;88;21338;-90
2023/02/06 09:18:55;;;;;;;12.28;7.03;;;;;;;-1.43;60.94;102394.73;1478930;88;21630;-80
2023/02/06 09:21:26;;;;;;;12.60;7.17;;;;;;;-1.15;62.37;102402.13;1476480;88;21471;-86
2023/02/06 09:23:58;;;;;;;;;;;;;;;-1.19;60.98;102397.84;1485446;88;21368;-84
2023/02/06 09:26:29;;;;;;;11.20;5.83;;;;;;;-1.01;61.76;102400.58;1470913;88;20397;-86
2023/02/06 09:28:58;;;;;;;9.30;4.70;;;;;;;-1.08;61.30;102401.12;1477758;88;21479;-86
2023/02/06 09:31:29;;;;;;;10.57;6.13;;;;;;;-0.89;60.17;102396.91;1480026;88;22236;-85
2023/02/06 09:33:56;;;;;;;11.60;5.83;;;;;;;-0.84;60.23;102389.90;1488994;88;21493;-86
2023/02/06 09:36:23;;;;;;;12.40;6.13;;;;;;;-0.56;60.36;102393.72;1476634;88;21519;-85
2023/02/06 09:38:52;;;;;;;13.00;6.50;;;;;;;0.01;58.57;102389.17;1466928;88;21516;-95
2023/02/06 09:41:24;;;;;;;11.63;6.47;;;;;;;0.01;55.75;102383.95;1480127;88;21722;-94
2023/02/06 09:43:58;;;;;;;14.63;8.73;;;;;;;1.25;54.97;102380.59;1477423;88;21944;-85
2023/02/06 09:46:30;;;;;;;10.10;5.87;;;;;;;2.02;50.92;102366.73;1465834;88;21907;-89
2023/02/06 09:48:59;;;;;;;16.07;7.17;;;;;;;2.72;50.63;102364.98;1476668;88;22082;-89
2023/02/06 09:51:42;;;;;;;13.20;6.60;;;;;;;2.72;50.63;102364.98;1468929;88;21611;-87
2023/02/06 09:54:34;;;;;;;10.90;6.80;;;;;;;3.11;48.95;102365.44;1481793;88;22696;-83
2023/02/06 09:57:20;;;;;;;9.33;5.50;;;;;;;3.13;48.37;102358.37;1473026;88;21435;-83
2023/02/06 09:59:52;;;;;;;14.27;8.33;;;;;;;3.01;47.96;102353.56;1461939;88;21685;-81
2023/02/06 10:02:40;;;;;;;11.30;5.23;;;;;;;4.09;48.76;102352.33;1470436;88;21464;-83
2023/02/06 10:05:33;;;;;;;10.57;6.57;;;;;;;3.24;45.78;102362.39;1483059;88;21590;-84
2023/02/06 10:08:17;;;;;;;10.60;6.23;;;;;;;3.24;47.37;102362.39;1465952;88;21434;-83
2023/02/06 10:10:48;;;;;;;10.67;7.97;;;;;;;2.69;47.52;102357.25;1470790;88;21361;-84
2023/02/06 10:13:29;;;;;;;11.40;7.37;;;;;;;3.54;48.58;102360.02;1475862;88;21427;-83
2023/02/06 10:16:03;;;;;;;10.40;7.03;;;;;;;4.24;47.92;102347.80;1481583;88;21545;-83
2023/02/06 10:18:40;;;;;;;12.87;7.37;;;;;;;4.63;47.23;102351.05;1476138;88;21390;-84
2023/02/06 10:21:21;;;;;;;11.07;7.37;;;;;;;4.89;45.26;102356.53;1481219;88;21535;-84
2023/02/06 10:23:59;;;;;;;6.90;5.12;;;;;;;5.16;45.47;102351.91;1476897;88;21429;-85
2023/02/06 10:26:26;;;;;;;7.97;5.47;;;;;;;4.16;43.65;102354.64;1475925;88;21397;-86
2023/02/06 10:28:57;;;;;;;7.83;5.50;;;;;;;3.89;44.23;102355.70;1461711;88;22432;-86
2023/02/06 10:31:46;;;;;;;8.48;5.30;;;;;;;3.06;45.33;102354.27;1484955;88;21390;-84
2023/02/06 10:34:53;;;;;;;6.33;4.37;;;;;;;2.28;46.75;102342.89;1481170;88;21353;-85
2023/02/06 10:37:46;;;;;;;9.03;6.07;;;;;;;2.42;46.93;102336.78;1476278;88;21456;-85
2023/02/06 10:40:24;;;;;;;13.17;9.23;;;;;;;2.39;49.33;102339.48;1470358;88;21316;-85
2023/02/06 10:43:04;;;;;;;15.17;10.13;;;;;;;3.11;48.23;102344.50;1476194;88;21471;-85
2023/02/06 10:45:48;;;;;;;11.55;7.92;;;;;;;3.80;47.20;102339.41;1482308;88;21345;-85
2023/02/06 10:48:41;;;;;;;9.90;6.73;;;;;;;4.36;46.08;102332.89;1478610;88;21331;-84
2023/02/06 10:51:36;;;;;;;8.57;4.43;;;;;;;4.11;46.07;102324.28;1475796;88;22470;-83
2023/02/06 10:54:27;;;;;;;9.00;6.23;;;;;;;3.51;44.77;102337.88;1469561;88;22053;-82
2023/02/06 10:56:57;;;;;;;10.73;7.30;;;;;;;2.86;46.78;102323.55;1475942;88;21671;-83
2023/02/06 10:59:38;;;;;;;12.00;5.23;;;;;;;2.74;48.41;102321.81;1471124;88;21368;-83
2023/02/06 11:02:12;;;;;;;7.65;5.80;;;;;;;2.79;47.84;102318.56;1475380;88;21526;-82
2023/02/06 11:04:47;;;;;;;9.43;6.13;;;;;;;3.07;47.22;102321.95;1474052;88;21485;-81
2023/02/06 11:07:31;;;;;;;7.47;5.50;;;;;;;3.30;48.06;102322.45;1457553;88;21911;-81
2023/02/06 11:09:59;;;;;;;8.90;6.23;;;;;;;2.83;46.60;102322.80;1470571;88;21368;-83
2023/02/06 11:12:36;;;;;;;11.70;6.50;;;;;;;2.53;48.35;102326.80;1474587;88;21449;-82
2023/02/06 11:15:23;;;;;;;9.83;6.30;;;;;;;2.81;49.19;102320.23;1476793;88;21368;-83
2023/02/06 11:17:52;;;;;;;9.97;6.70;;;;;;;2.94;47.98;102319.38;1474870;88;22307;-83
2023/02/06 11:20:27;;;;;;;10.23;7.17;;;;;;;2.48;48.83;102324.36;1475609;88;21398;-82
2023/02/06 11:22:54;;;;;;;10.57;8.17;;;;;;;2.21;49.02;102322.14;1483553;88;21361;-82
2023/02/06 11:25:32;;;;;;;10.30;6.57;;;;;;;3.02;47.52;102321.28;1478934;88;21471;-83
2023/02/06 11:28:00;;;;;;;7.73;5.63;;;;;;;3.26;48.55;102320.88;1474682;88;21466;-83
2023/02/06 11:30:35;;;;;;;10.03;6.43;;;;;;;3.85;46.36;102319.58;1471659;88;22211;-86
2023/02/06 11:33:09;;;;;;;8.93;6.57;;;;;;;3.13;46.51;102318.27;1479884;88;21435;-85
2023/02/06 11:35:47;;;;;;;10.63;6.93;;;;;;;2.62;47.22;102312.16;1478091;88;21403;-86
2023/02/06 11:38:21;;;;;;;13.50;7.50;;;;;;;2.36;48.17;102309.50;1469594;88;21583;-85
2023/02/06 11:41:02;;;;;;;8.07;5.73;;;;;;;2.89;48.39;102317.36;1481976;88;21405;-86
2023/02/06 11:43:46;;;;;;;10.93;6.70;;;;;;;2.44;48.36;102314.04;1472407;88;21427;-86